createdAt,value
2023-05-08T00:02:24.408Z,35.10
2023-05-08T00:04:52.746Z,28.45
2023-05-08T00:07:20.649Z,26.30
2023-05-08T00:09:48.590Z,21.30
2023-05-08T00:12:16.928Z,18.80
2023-05-08T00:14:44.960Z,18.75
2023-05-08T00:17:13.036Z,20.73
2023-05-08T00:19:41.427Z,27.27
2023-05-08T00:22:09.301Z,19.37
2023-05-08T00:24:37.388Z,22.15
2023-05-08T00:27:05.913Z,20.75
2023-05-08T00:29:34.523Z,50.45
2023-05-08T00:32:02.717Z,36.75
2023-05-08T00:34:30.959Z,27.45
2023-05-08T00:36:59.027Z,32.35
2023-05-08T00:39:27.136Z,41.65
2023-05-08T00:41:55.800Z,44.20
2023-05-08T00:44:23.607Z,43.50
2023-05-08T00:46:51.784Z,34.60
2023-05-08T00:49:20.859Z,25.35
2023-05-08T00:51:51.694Z,21.83
2023-05-08T00:54:20.784Z,23.83
2023-05-08T00:56:51.146Z,34.00
2023-05-08T00:59:22.615Z,28.45
2023-05-08T01:01:52.564Z,30.88
2023-05-08T01:04:23.522Z,38.53
2023-05-08T01:06:51.726Z,39.58
2023-05-08T01:09:19.605Z,41.85
2023-05-08T01:12:23.547Z,23.87
2023-05-08T01:15:03.829Z,25.50
2023-05-08T01:18:13.578Z,28.30
2023-05-08T01:21:01.480Z,29.60
2023-05-08T01:23:48.278Z,30.10
2023-05-08T01:27:03.684Z,39.50
2023-05-08T01:29:53.158Z,37.92
2023-05-08T01:32:43.310Z,37.03
2023-05-08T01:35:35.014Z,35.45
2023-05-08T01:38:48.137Z,35.92
2023-05-08T01:41:30.984Z,38.30
2023-05-08T01:44:25.839Z,30.08
2023-05-08T01:46:56.677Z,33.63
2023-05-08T01:49:28.851Z,35.10
2023-05-08T01:52:05.633Z,20.67
2023-05-08T01:54:59.322Z,31.40
2023-05-08T01:57:30.269Z,31.52
2023-05-08T02:00:01.488Z,29.17
2023-05-08T02:02:35.045Z,28.87
2023-05-08T02:05:05.717Z,31.35
2023-05-08T02:07:38.315Z,62.22
2023-05-08T02:10:08.689Z,34.65
2023-05-08T02:12:38.599Z,30.62
2023-05-08T02:15:09.661Z,32.70
2023-05-08T02:17:41.266Z,35.72
2023-05-08T02:20:15.683Z,34.13
2023-05-08T02:22:45.872Z,33.80
2023-05-08T02:25:16.576Z,30.20
2023-05-08T02:27:47.224Z,37.80
2023-05-08T02:30:17.930Z,33.60
2023-05-08T02:32:48.421Z,34.50
2023-05-08T02:35:19.136Z,35.28
2023-05-08T02:37:52.269Z,30.48
2023-05-08T02:40:25.519Z,37.80
2023-05-08T02:42:53.989Z,32.88
2023-05-08T02:45:27.642Z,27.40
2023-05-08T02:48:16.220Z,21.37
2023-05-08T02:51:07.550Z,21.33
2023-05-08T02:53:41.483Z,18.02
2023-05-08T02:56:19.145Z,20.85
2023-05-08T02:59:00.288Z,23.80
2023-05-08T03:01:54.644Z,18.95
2023-05-08T03:04:30.226Z,24.35
2023-05-08T03:06:59.459Z,35.53
2023-05-08T03:09:39.375Z,28.40
2023-05-08T03:12:13.365Z,27.75
2023-05-08T03:14:53.280Z,30.77
2023-05-08T03:17:23.442Z,28.45
2023-05-08T03:19:58.445Z,31.33
2023-05-08T03:22:30.715Z,33.85
2023-05-08T03:25:02.909Z,27.52
2023-05-08T03:27:33.976Z,27.80
2023-05-08T03:30:02.757Z,28.77
2023-05-08T03:32:35.911Z,24.20
2023-05-08T03:35:05.911Z,42.08
2023-05-08T03:37:34.366Z,32.67
2023-05-08T03:40:02.660Z,31.27
2023-05-08T03:42:31.983Z,26.02
2023-05-08T03:45:03.342Z,23.73
2023-05-08T03:47:33.603Z,17.98
2023-05-08T03:50:02.301Z,20.88
2023-05-08T03:52:32.959Z,18.77
2023-05-08T03:55:02.090Z,19.98
2023-05-08T03:57:45.240Z,18.45
2023-05-08T04:00:35.045Z,23.10
2023-05-08T04:03:28.182Z,17.40
2023-05-08T04:06:17.867Z,18.35
2023-05-08T04:08:54.634Z,21.60
2023-05-08T04:11:34.564Z,15.35
2023-05-08T04:14:08.087Z,14.20
2023-05-08T04:19:15.956Z,16.65
2023-05-08T04:21:45.083Z,12.90
2023-05-08T04:24:16.313Z,10.80
2023-05-08T04:26:46.166Z,7.78
2023-05-08T04:29:15.063Z,10.15
2023-05-08T04:31:44.599Z,8.68
2023-05-08T04:34:13.263Z,7.30
2023-05-08T04:36:41.789Z,6.40
2023-05-08T04:39:10.670Z,7.57
2023-05-08T04:41:38.884Z,7.45
2023-05-08T04:44:07.286Z,6.68
2023-05-08T04:46:35.719Z,6.62
2023-05-08T04:49:03.889Z,5.47
2023-05-08T04:51:32.377Z,5.62
2023-05-08T04:54:00.712Z,5.55
2023-05-08T04:56:28.910Z,3.85
2023-05-08T04:58:57.380Z,3.97
2023-05-08T05:01:25.537Z,3.95
2023-05-08T05:03:53.643Z,3.08
2023-05-08T05:06:22.247Z,5.47
2023-05-08T05:08:50.192Z,4.28
2023-05-08T05:11:18.590Z,5.72
2023-05-08T05:13:47.004Z,2.87
2023-05-08T05:16:14.993Z,2.87
2023-05-08T05:18:43.073Z,2.05
2023-05-08T05:21:11.869Z,2.33
2023-05-08T05:23:39.934Z,3.62
2023-05-08T05:26:08.426Z,2.35
2023-05-08T05:28:36.959Z,1.67
2023-05-08T05:31:05.436Z,4.32
2023-05-08T05:33:33.745Z,2.53
2023-05-08T05:36:02.785Z,2.45
2023-05-08T05:38:30.787Z,3.40
2023-05-08T05:40:58.769Z,3.72
2023-05-08T05:43:27.360Z,2.62
2023-05-08T05:45:56.650Z,2.33
2023-05-08T05:48:25.184Z,2.40
2023-05-08T05:50:53.718Z,2.78
2023-05-08T05:53:22.216Z,2.35
2023-05-08T05:55:53.950Z,1.77
2023-05-08T05:58:22.953Z,3.28
2023-05-08T06:00:51.932Z,1.52
2023-05-08T06:03:20.553Z,1.42
2023-05-08T06:05:48.812Z,1.50
2023-05-08T06:08:18.303Z,1.02
2023-05-08T06:10:47.295Z,2.08
2023-05-08T06:13:15.997Z,1.48
2023-05-08T06:15:44.693Z,2.05
2023-05-08T06:18:14.169Z,0.65
2023-05-08T06:20:42.508Z,2.03
2023-05-08T06:23:10.796Z,1.02
2023-05-08T06:25:39.462Z,1.45
2023-05-08T06:28:08.560Z,2.85
2023-05-08T06:30:36.764Z,3.58
2023-05-08T06:33:05.407Z,2.92
2023-05-08T06:35:33.735Z,2.40
2023-05-08T06:38:02.280Z,2.83
2023-05-08T06:40:30.891Z,2.20
2023-05-08T06:42:59.049Z,2.53
2023-05-08T06:45:27.548Z,1.52
2023-05-08T06:47:56.110Z,1.40
2023-05-08T06:50:24.227Z,2.47
2023-05-08T06:52:52.136Z,2.12
2023-05-08T06:55:20.629Z,2.85
2023-05-08T06:57:48.695Z,1.62
2023-05-08T07:00:17.044Z,0.90
2023-05-08T07:02:45.597Z,1.40
2023-05-08T07:05:13.983Z,1.83
2023-05-08T07:07:43.110Z,0.57
2023-05-08T07:10:11.752Z,1.40
2023-05-08T07:12:52.055Z,0.77
2023-05-08T07:15:26.496Z,3.20
2023-05-08T07:17:55.305Z,1.85
2023-05-08T07:20:33.155Z,1.80
2023-05-08T07:23:01.869Z,1.05
2023-05-08T07:25:47.696Z,1.77
2023-05-08T07:28:32.785Z,1.52
2023-05-08T07:31:07.775Z,2.62
2023-05-08T07:33:48.838Z,1.90
2023-05-08T07:36:17.445Z,2.42
2023-05-08T07:38:46.120Z,2.15
2023-05-08T07:41:17.604Z,1.87
2023-05-08T07:43:58.735Z,3.08
2023-05-08T07:46:27.058Z,2.33
2023-05-08T07:49:07.821Z,3.55
2023-05-08T07:51:36.100Z,2.55
2023-05-08T07:54:04.274Z,2.30
2023-05-08T07:56:32.909Z,2.17
2023-05-08T07:59:01.102Z,2.70
2023-05-08T08:01:29.608Z,1.95
2023-05-08T08:04:01.478Z,1.15
2023-05-08T08:06:29.926Z,2.12
2023-05-08T08:08:58.737Z,1.87
2023-05-08T08:11:26.752Z,0.75
2023-05-08T08:14:07.050Z,2.17
2023-05-08T08:16:35.468Z,1.92
2023-05-08T08:19:03.980Z,1.75
2023-05-08T08:21:32.016Z,2.25
2023-05-08T08:24:00.834Z,2.83
2023-05-08T08:26:29.423Z,2.08
2023-05-08T08:28:57.752Z,1.95
2023-05-08T08:31:26.324Z,9.07
2023-05-08T08:34:06.927Z,1.30
2023-05-08T08:39:33.988Z,1.12
2023-05-08T08:42:10.074Z,2.25
2023-05-08T08:44:45.145Z,2.67
2023-05-08T08:47:30.179Z,2.35
2023-05-08T08:50:03.721Z,2.50
2023-05-08T08:52:41.071Z,1.55
2023-05-08T08:55:17.264Z,2.33
2023-05-08T08:58:14.656Z,2.70
2023-05-08T09:00:43.752Z,1.55
2023-05-08T09:03:12.726Z,1.77
2023-05-08T09:05:41.587Z,2.78
2023-05-08T09:08:11.187Z,0.90
2023-05-08T09:10:39.935Z,1.62
2023-05-08T09:13:17.413Z,2.20
2023-05-08T09:15:51.162Z,1.85
2023-05-08T09:21:09.288Z,3.35
2023-05-08T09:24:18.275Z,2.95
2023-05-08T09:27:08.713Z,1.95
2023-05-08T09:29:39.590Z,2.25
2023-05-08T09:37:44.212Z,2.75
2023-05-08T09:40:22.689Z,2.30
2023-05-08T09:42:51.587Z,1.83
2023-05-08T09:45:49.723Z,2.87
2023-05-08T09:48:40.240Z,3.03
2023-05-08T09:51:08.746Z,3.12
2023-05-08T09:53:42.165Z,2.65
2023-05-08T09:56:10.475Z,2.40
2023-05-08T09:58:41.463Z,1.48
2023-05-08T10:01:35.210Z,2.05
2023-05-08T10:04:06.370Z,1.25
2023-05-08T10:06:36.864Z,1.35
2023-05-08T10:09:15.975Z,2.17
2023-05-08T10:11:53.983Z,1.23
2023-05-08T10:14:27.236Z,1.55
2023-05-08T10:16:55.809Z,1.12
2023-05-08T10:19:29.010Z,1.77
2023-05-08T10:24:47.531Z,3.17
2023-05-08T10:28:11.436Z,1.50
2023-05-08T10:30:51.051Z,1.15
2023-05-08T10:33:25.296Z,1.02
2023-05-08T10:35:57.429Z,2.72
2023-05-08T10:38:26.735Z,1.40
2023-05-08T10:40:58.421Z,2.42
2023-05-08T10:43:29.074Z,2.30
2023-05-08T10:45:59.416Z,3.20
2023-05-08T10:48:39.682Z,1.58
2023-05-08T10:51:22.736Z,2.62
2023-05-08T10:54:08.911Z,1.67
2023-05-08T10:56:39.990Z,2.17
2023-05-08T10:59:21.514Z,1.02
2023-05-08T11:01:50.956Z,2.15
2023-05-08T11:04:24.744Z,1.70
2023-05-08T11:06:53.875Z,1.23
2023-05-08T11:09:44.106Z,1.80
2023-05-08T11:12:26.221Z,1.90
2023-05-08T11:15:07.047Z,6.93
2023-05-08T11:17:35.903Z,19.27
2023-05-08T11:20:07.371Z,2.97
2023-05-08T11:22:37.504Z,2.37
2023-05-08T11:25:14.844Z,3.12
2023-05-08T11:28:06.837Z,2.50
2023-05-08T11:30:39.909Z,2.55
2023-05-08T11:33:11.502Z,1.75
2023-05-08T11:35:57.453Z,2.55
2023-05-08T11:38:28.644Z,4.85
2023-05-08T11:40:58.961Z,3.20
2023-05-08T11:43:34.053Z,3.10
2023-05-08T11:46:20.725Z,3.67
2023-05-08T11:48:50.216Z,2.83
2023-05-08T11:51:20.571Z,1.25
2023-05-08T11:53:48.961Z,3.42
2023-05-08T11:56:20.793Z,3.25
2023-05-08T11:58:49.032Z,4.43
2023-05-08T12:01:21.386Z,3.40
2023-05-08T12:03:50.183Z,18.02
2023-05-08T12:06:19.828Z,1.90
2023-05-08T12:08:48.183Z,7.10
2023-05-08T12:11:24.691Z,5.15
2023-05-08T12:13:54.274Z,1.62
2023-05-08T12:16:26.649Z,1.50
2023-05-08T12:18:57.359Z,2.58
2023-05-08T12:21:25.933Z,4.75
2023-05-08T12:23:56.647Z,2.45
2023-05-08T12:26:25.045Z,2.20
2023-05-08T12:28:58.115Z,3.22
2023-05-08T12:31:29.429Z,5.55
2023-05-08T12:33:58.568Z,1.17
2023-05-08T12:36:27.641Z,2.45
2023-05-08T12:39:13.311Z,1.85
2023-05-08T12:41:52.255Z,2.58
2023-05-08T12:44:22.732Z,3.05
2023-05-08T12:46:57.110Z,1.40
2023-05-08T12:49:30.935Z,2.45
2023-05-08T12:52:08.477Z,2.97
2023-05-08T12:54:41.705Z,10.85
2023-05-08T12:57:22.743Z,3.40
2023-05-08T13:00:12.629Z,3.37
2023-05-08T13:02:54.208Z,2.40
2023-05-08T13:05:24.278Z,4.18
2023-05-08T13:07:52.891Z,3.30
2023-05-08T13:10:23.956Z,2.70
2023-05-08T13:12:53.614Z,4.75
2023-05-08T13:15:21.679Z,2.75
2023-05-08T13:17:50.181Z,2.90
2023-05-08T13:20:18.744Z,4.47
2023-05-08T13:22:46.795Z,2.58
2023-05-08T13:25:15.587Z,4.22
2023-05-08T13:27:44.560Z,3.47
2023-05-08T13:30:15.876Z,3.00
2023-05-08T13:32:51.824Z,6.40
2023-05-08T13:38:06.995Z,2.25
2023-05-08T13:40:35.550Z,4.18
2023-05-08T13:43:03.865Z,5.55
2023-05-08T13:45:33.524Z,2.05
2023-05-08T13:48:02.023Z,5.30
2023-05-08T13:50:41.611Z,3.72
2023-05-08T13:56:03.632Z,1.85
2023-05-08T13:58:48.445Z,2.53
2023-05-08T14:01:26.313Z,1.87
2023-05-08T14:03:58.165Z,2.70
2023-05-08T14:06:27.262Z,4.07
2023-05-08T14:08:57.168Z,2.42
2023-05-08T14:14:12.079Z,4.90
2023-05-08T14:16:40.488Z,2.37
2023-05-08T14:19:08.955Z,4.37
2023-05-08T14:21:38.028Z,4.10
2023-05-08T14:24:08.511Z,4.75
2023-05-08T14:29:23.333Z,3.08
2023-05-08T14:31:52.791Z,2.65
2023-05-08T14:34:35.437Z,2.50
2023-05-08T14:37:11.187Z,3.30
2023-05-08T14:39:39.983Z,1.90
2023-05-08T14:44:54.526Z,8.38
2023-05-08T14:47:24.636Z,2.78
2023-05-08T14:49:56.646Z,2.25
2023-05-08T14:54:56.699Z,4.22
2023-05-08T14:57:41.642Z,2.47
2023-05-08T15:00:21.840Z,2.83
2023-05-08T15:02:50.948Z,5.47
2023-05-08T15:05:20.503Z,5.28
2023-05-08T15:07:50.600Z,6.35
2023-05-08T15:10:30.965Z,3.92
2023-05-08T15:13:02.254Z,4.03
2023-05-08T15:15:31.376Z,3.78
2023-05-08T15:18:00.410Z,5.03
2023-05-08T15:20:29.259Z,3.03
2023-05-08T15:22:58.124Z,2.90
2023-05-08T15:25:26.493Z,7.82
2023-05-08T15:31:08.642Z,5.25
2023-05-08T15:36:23.260Z,1.67
2023-05-08T15:38:51.585Z,3.03
2023-05-08T15:41:27.215Z,3.25
2023-05-08T15:43:55.748Z,3.60
2023-05-08T15:46:23.780Z,2.90
2023-05-08T15:48:54.230Z,1.33
2023-05-08T15:51:22.967Z,3.72
2023-05-08T15:53:52.887Z,5.15
2023-05-08T15:59:10.779Z,6.22
2023-05-08T16:01:39.562Z,3.17
2023-05-08T16:04:11.176Z,2.55
2023-05-08T16:06:39.443Z,3.42
2023-05-08T16:09:08.428Z,4.90
2023-05-08T16:11:37.074Z,5.30
2023-05-08T16:14:05.328Z,7.07
2023-05-08T16:16:33.993Z,3.53
2023-05-08T16:19:02.155Z,5.57
2023-05-08T16:21:30.393Z,5.10
2023-05-08T16:23:59.051Z,5.05
2023-05-08T16:26:27.387Z,6.20
2023-05-08T16:28:55.848Z,5.50
2023-05-08T16:31:24.733Z,4.68
2023-05-08T16:36:39.469Z,5.95
2023-05-08T16:39:08.318Z,7.00
2023-05-08T16:41:36.828Z,6.28
2023-05-08T16:44:05.883Z,6.75
2023-05-08T16:46:34.800Z,8.85
2023-05-08T16:49:02.924Z,6.97
2023-05-08T16:51:32.752Z,7.12
2023-05-08T16:54:01.255Z,25.30
2023-05-08T16:56:29.382Z,9.32
2023-05-08T16:58:58.717Z,10.45
2023-05-08T17:01:29.410Z,17.15
2023-05-08T17:04:00.668Z,15.77
2023-05-08T17:06:28.928Z,16.25
2023-05-08T17:08:57.803Z,19.00
2023-05-08T17:11:26.375Z,22.65
2023-05-08T17:13:54.571Z,23.62
2023-05-08T17:16:23.680Z,28.42
2023-05-08T17:18:51.905Z,31.00
2023-05-08T17:21:20.377Z,26.50
2023-05-08T17:23:49.889Z,24.98
2023-05-08T17:26:18.795Z,22.15
2023-05-08T17:28:47.148Z,24.70
2023-05-08T17:31:16.282Z,25.05
2023-05-08T17:33:44.271Z,18.87
2023-05-08T17:36:12.682Z,28.70
2023-05-08T17:38:46.249Z,20.90
2023-05-08T17:41:14.860Z,18.90
2023-05-08T17:43:43.584Z,26.27
2023-05-08T17:46:17.985Z,26.17
2023-05-08T17:48:49.795Z,23.90
2023-05-08T17:51:18.654Z,37.55
2023-05-08T17:53:47.614Z,53.33
2023-05-08T17:56:20.979Z,56.95
2023-05-08T17:58:51.046Z,69.78
2023-05-08T18:01:21.481Z,61.78
2023-05-08T18:03:52.946Z,52.90
2023-05-08T18:06:22.039Z,59.97
2023-05-08T18:08:50.605Z,48.50
2023-05-08T18:11:24.302Z,50.83
2023-05-08T18:13:57.267Z,53.13
2023-05-08T18:16:26.004Z,47.70
2023-05-08T18:18:55.442Z,48.90
2023-05-08T18:21:25.133Z,37.47
2023-05-08T18:23:54.541Z,39.70
2023-05-08T18:26:23.607Z,42.58
2023-05-08T18:28:52.944Z,39.45
2023-05-08T18:31:21.583Z,40.50
2023-05-08T18:33:51.651Z,37.90
2023-05-08T18:36:21.213Z,43.22
2023-05-08T18:38:50.332Z,33.17
2023-05-08T18:41:19.090Z,29.12
2023-05-08T18:43:51.388Z,28.80
2023-05-08T18:46:20.639Z,26.52
2023-05-08T18:48:49.918Z,26.20
2023-05-08T18:51:19.592Z,34.88
2023-05-08T18:54:43.903Z,35.72
2023-05-08T19:00:06.981Z,29.27
2023-05-08T19:02:35.300Z,27.55
2023-05-08T19:05:03.633Z,27.98
2023-05-08T19:07:32.363Z,27.95
2023-05-08T19:10:00.782Z,27.02
2023-05-08T19:12:29.611Z,25.73
2023-05-08T19:14:58.366Z,26.50
2023-05-08T19:17:26.401Z,29.80
2023-05-08T19:19:55.255Z,23.20
2023-05-08T19:22:23.959Z,24.42
2023-05-08T19:24:52.185Z,27.00
2023-05-08T19:27:20.463Z,28.80
2023-05-08T19:29:49.028Z,26.35
2023-05-08T19:32:17.289Z,21.92
2023-05-08T19:34:45.466Z,27.15
2023-05-08T19:37:17.334Z,23.83
2023-05-08T19:39:48.821Z,26.02
2023-05-08T19:42:17.334Z,22.08
2023-05-08T19:44:45.652Z,22.08
2023-05-08T19:47:14.704Z,24.23
2023-05-08T19:49:43.666Z,25.05
2023-05-08T19:52:12.243Z,24.55
2023-05-08T19:54:40.363Z,24.77
2023-05-08T19:57:08.991Z,27.62
2023-05-08T19:59:37.635Z,22.58
2023-05-08T20:02:08.753Z,19.23
2023-05-08T20:04:48.629Z,20.73
2023-05-08T20:07:25.180Z,19.27
2023-05-08T20:09:53.742Z,22.37
2023-05-08T20:12:21.953Z,24.65
2023-05-08T20:14:50.239Z,19.60
2023-05-08T20:17:18.798Z,21.45
2023-05-08T20:19:47.049Z,21.60
2023-05-08T20:22:15.210Z,23.67
2023-05-08T20:24:43.459Z,20.10
2023-05-08T20:27:11.698Z,20.80
2023-05-08T20:29:39.875Z,24.08
2023-05-08T20:32:08.561Z,19.42
2023-05-08T20:34:36.643Z,19.02
2023-05-08T20:37:04.651Z,19.85
2023-05-08T20:39:33.041Z,15.13
2023-05-08T20:42:01.118Z,18.17
2023-05-08T20:44:28.966Z,17.42
2023-05-08T20:46:57.197Z,18.20
2023-05-08T20:49:25.379Z,20.67
2023-05-08T20:51:53.350Z,20.25
2023-05-08T20:54:21.838Z,19.95
2023-05-08T20:56:50.153Z,21.05
2023-05-08T20:59:19.104Z,28.02
2023-05-08T21:01:48.697Z,20.52
2023-05-08T21:04:17.008Z,19.27
2023-05-08T21:06:45.039Z,11.90
2023-05-08T21:09:13.454Z,17.55
2023-05-08T21:11:41.494Z,21.15
2023-05-08T21:14:09.605Z,19.48
2023-05-08T21:16:38.233Z,23.33
2023-05-08T21:19:06.338Z,25.73
2023-05-08T21:21:35.455Z,31.90
2023-05-08T21:24:04.635Z,28.33
2023-05-08T21:26:32.645Z,29.75
2023-05-08T21:29:00.900Z,54.65
2023-05-08T21:31:29.398Z,20.58
2023-05-08T21:33:57.664Z,32.30
2023-05-08T21:36:25.803Z,48.85
2023-05-08T21:38:54.204Z,51.92
2023-05-08T21:41:22.737Z,55.40
2023-05-08T21:43:51.068Z,44.20
2023-05-08T21:46:19.363Z,48.95
2023-05-08T21:48:47.423Z,43.53
2023-05-08T21:51:15.383Z,47.88
2023-05-08T21:53:43.635Z,41.45
2023-05-08T21:56:11.434Z,44.90
2023-05-08T21:58:39.352Z,31.00
2023-05-08T22:01:07.741Z,28.73
2023-05-08T22:03:36.159Z,30.73
2023-05-08T22:06:04.346Z,31.10
2023-05-08T22:08:32.390Z,27.20
2023-05-08T22:11:00.983Z,22.77
2023-05-08T22:13:30.935Z,28.42
2023-05-08T22:15:59.059Z,31.00
2023-05-08T22:18:27.423Z,25.77
2023-05-08T22:20:55.576Z,19.10
2023-05-08T22:23:23.513Z,20.58
2023-05-08T22:25:52.097Z,18.70
2023-05-08T22:28:20.163Z,19.33
2023-05-08T22:30:48.195Z,15.57
2023-05-08T22:33:16.664Z,14.57
2023-05-08T22:35:44.694Z,19.52
2023-05-08T22:38:12.715Z,16.45
2023-05-08T22:40:42.761Z,18.40
2023-05-08T22:43:10.918Z,15.85
2023-05-08T22:45:39.057Z,17.10
2023-05-08T22:48:07.834Z,13.57
2023-05-08T22:50:37.023Z,14.98
2023-05-08T22:53:08.832Z,16.20
2023-05-08T22:55:37.861Z,15.07
2023-05-08T22:58:05.894Z,16.80
2023-05-08T23:00:33.904Z,14.98
2023-05-08T23:03:02.454Z,13.73
2023-05-08T23:05:30.488Z,16.35
2023-05-08T23:07:58.555Z,14.87
2023-05-08T23:10:27.055Z,12.95
2023-05-08T23:12:54.940Z,12.63
2023-05-08T23:15:22.908Z,17.48
2023-05-08T23:17:51.323Z,16.55
2023-05-08T23:20:19.508Z,17.20
2023-05-08T23:22:47.565Z,18.77
2023-05-08T23:25:16.164Z,19.17
2023-05-08T23:27:44.289Z,22.37
2023-05-08T23:30:13.577Z,22.27
2023-05-08T23:32:42.025Z,18.87
2023-05-08T23:35:11.044Z,17.17
2023-05-08T23:37:39.125Z,18.35
2023-05-08T23:40:08.231Z,20.15
2023-05-08T23:42:37.539Z,18.33
2023-05-08T23:45:06.651Z,23.27
2023-05-08T23:47:34.894Z,23.50
2023-05-08T23:50:02.987Z,27.35
2023-05-08T23:52:32.270Z,29.15
2023-05-08T23:55:01.717Z,33.53
2023-05-08T23:57:31.850Z,31.50
